createdAt,value
2018-03-07T00:01:57.064Z,94.50
2018-03-07T00:04:24.953Z,94.10
2018-03-07T00:06:52.111Z,94.10
2018-03-07T00:09:19.982Z,94.10
2018-03-07T00:11:47.546Z,94.10
2018-03-07T00:14:15.084Z,94.00
2018-03-07T00:16:42.642Z,93.70
2018-03-07T00:19:10.110Z,94.00
2018-03-07T00:21:37.656Z,94.00
2018-03-07T00:24:04.492Z,94.00
2018-03-07T00:26:31.276Z,93.90
2018-03-07T00:28:59.377Z,94.00
2018-03-07T00:31:26.166Z,94.10
2018-03-07T00:33:52.870Z,93.90
2018-03-07T00:36:19.596Z,93.90
2018-03-07T00:38:47.688Z,94.00
2018-03-07T00:41:14.539Z,94.00
2018-03-07T00:43:41.384Z,93.90
2018-03-07T00:46:08.514Z,93.70
2018-03-07T00:48:37.261Z,93.80
2018-03-07T00:51:03.978Z,93.70
2018-03-07T00:53:31.240Z,93.70
2018-03-07T00:55:57.988Z,93.80
2018-03-07T00:58:25.854Z,93.90
2018-03-07T01:00:53.934Z,94.00
2018-03-07T01:03:20.722Z,94.30
2018-03-07T01:05:47.399Z,94.20
2018-03-07T01:08:15.136Z,94.00
2018-03-07T01:10:42.559Z,94.00
2018-03-07T01:13:09.578Z,94.00
2018-03-07T01:15:37.174Z,94.00
2018-03-07T01:18:04.332Z,93.90
2018-03-07T01:20:33.952Z,94.00
2018-03-07T01:23:01.698Z,94.00
2018-03-07T01:25:29.480Z,94.10
2018-03-07T01:27:56.275Z,94.10
2018-03-07T01:30:23.084Z,94.10
2018-03-07T01:32:50.227Z,93.90
2018-03-07T01:35:17.181Z,94.50
2018-03-07T01:37:43.993Z,93.80
2018-03-07T01:40:12.412Z,93.60
2018-03-07T01:42:39.465Z,93.60
2018-03-07T01:45:06.292Z,93.70
2018-03-07T01:47:32.955Z,93.90
2018-03-07T01:50:00.605Z,93.70
2018-03-07T01:52:27.287Z,93.80
2018-03-07T01:54:54.016Z,93.80
2018-03-07T01:57:20.761Z,94.10
2018-03-07T01:59:47.613Z,94.20
2018-03-07T02:02:14.828Z,94.30
2018-03-07T02:04:41.513Z,94.30
2018-03-07T02:07:08.557Z,94.00
2018-03-07T02:09:35.714Z,94.10
2018-03-07T02:12:03.381Z,94.50
2018-03-07T02:14:30.098Z,94.50
2018-03-07T02:16:56.927Z,94.30
2018-03-07T02:19:23.888Z,94.30
2018-03-07T02:21:50.786Z,94.30
2018-03-07T02:24:17.838Z,94.20
2018-03-07T02:26:45.813Z,94.30
2018-03-07T02:29:12.947Z,94.10
2018-03-07T02:31:40.331Z,93.90
2018-03-07T02:34:07.329Z,93.90
2018-03-07T02:36:36.172Z,94.00
2018-03-07T02:39:05.529Z,94.10
2018-03-07T02:41:35.104Z,94.10
2018-03-07T02:44:05.373Z,93.90
2018-03-07T02:46:35.019Z,94.00
2018-03-07T02:49:02.572Z,94.30
2018-03-07T02:51:30.054Z,94.30
2018-03-07T02:53:56.925Z,94.30
2018-03-07T02:56:25.291Z,94.30
2018-03-07T02:58:52.027Z,94.40
2018-03-07T03:01:19.572Z,94.40
2018-03-07T03:03:47.273Z,94.40
2018-03-07T03:06:14.350Z,94.70
2018-03-07T03:08:40.978Z,94.60
2018-03-07T03:11:08.645Z,94.60
2018-03-07T03:13:36.248Z,94.50
2018-03-07T03:16:03.020Z,94.40
2018-03-07T03:18:31.006Z,94.50
2018-03-07T03:20:58.585Z,94.70
2018-03-07T03:23:25.945Z,94.70
2018-03-07T03:25:52.649Z,94.60
2018-03-07T03:28:20.204Z,94.70
2018-03-07T03:30:46.912Z,94.70
2018-03-07T03:33:14.686Z,94.40
2018-03-07T03:35:41.649Z,94.40
2018-03-07T03:38:09.391Z,94.40
2018-03-07T03:40:36.036Z,94.40
2018-03-07T03:43:02.779Z,94.50
2018-03-07T03:45:29.628Z,94.30
2018-03-07T03:47:56.578Z,94.60
2018-03-07T03:50:23.942Z,94.50
2018-03-07T03:52:50.883Z,94.60
2018-03-07T03:55:17.640Z,94.70
2018-03-07T03:57:44.681Z,94.80
2018-03-07T04:00:12.459Z,94.80
2018-03-07T04:02:39.104Z,94.90
2018-03-07T04:05:06.975Z,94.90
2018-03-07T04:07:33.722Z,94.90
2018-03-07T04:10:00.775Z,94.90
2018-03-07T04:12:27.929Z,94.90
2018-03-07T04:14:56.360Z,94.70
2018-03-07T04:17:23.370Z,95.10
2018-03-07T04:19:50.148Z,95.00
2018-03-07T04:22:17.121Z,94.90
2018-03-07T04:24:44.201Z,94.70
2018-03-07T04:27:11.794Z,94.60
2018-03-07T04:29:38.442Z,94.50
2018-03-07T04:32:05.546Z,94.40
2018-03-07T04:34:33.162Z,94.50
2018-03-07T04:36:59.887Z,94.50
2018-03-07T04:39:27.435Z,94.60
2018-03-07T04:41:54.413Z,94.30
2018-03-07T04:44:21.743Z,94.30
2018-03-07T04:46:49.282Z,94.40
2018-03-07T04:49:16.106Z,94.40
2018-03-07T04:51:43.346Z,94.40
2018-03-07T04:54:11.315Z,94.50
2018-03-07T04:56:38.359Z,94.70
2018-03-07T04:59:05.831Z,95.00
2018-03-07T05:01:32.560Z,95.00
2018-03-07T05:04:00.312Z,95.30
2018-03-07T05:06:28.081Z,95.20
2018-03-07T05:08:56.401Z,95.00
2018-03-07T05:11:23.028Z,95.00
2018-03-07T05:13:50.606Z,95.20
2018-03-07T05:16:18.461Z,95.20
2018-03-07T05:18:45.285Z,95.10
2018-03-07T05:21:12.074Z,94.90
2018-03-07T05:23:38.691Z,94.90
2018-03-07T05:26:06.282Z,94.90
2018-03-07T05:28:33.376Z,94.70
2018-03-07T05:31:00.833Z,94.90
2018-03-07T05:33:29.062Z,94.70
2018-03-07T05:35:57.231Z,94.50
2018-03-07T05:38:24.837Z,94.60
2018-03-07T05:40:52.478Z,94.60
2018-03-07T05:43:20.043Z,94.80
2018-03-07T05:45:48.299Z,94.80
2018-03-07T05:48:15.812Z,94.70
2018-03-07T05:50:42.514Z,94.70
2018-03-07T05:53:09.602Z,94.60
2018-03-07T05:55:36.720Z,94.70
2018-03-07T05:58:04.323Z,94.80
2018-03-07T06:00:31.374Z,94.80
2018-03-07T06:02:59.556Z,94.70
2018-03-07T06:05:26.298Z,94.60
2018-03-07T06:07:53.150Z,94.50
2018-03-07T06:10:20.100Z,94.00
2018-03-07T06:12:47.761Z,93.90
2018-03-07T06:15:14.824Z,93.90
2018-03-07T06:17:41.564Z,93.60
2018-03-07T06:20:08.726Z,93.70
2018-03-07T06:22:36.028Z,94.00
2018-03-07T06:25:03.548Z,94.20
2018-03-07T06:27:30.392Z,94.30
2018-03-07T06:29:57.901Z,94.00
2018-03-07T06:32:24.701Z,93.70
2018-03-07T06:34:51.503Z,93.80
2018-03-07T06:37:18.138Z,94.00
2018-03-07T06:39:44.840Z,93.70
2018-03-07T06:42:12.417Z,93.80
2018-03-07T06:44:41.621Z,93.90
2018-03-07T06:47:09.447Z,93.40
2018-03-07T06:49:37.407Z,93.40
2018-03-07T06:52:04.391Z,93.30
2018-03-07T06:54:31.984Z,93.40
2018-03-07T06:56:59.895Z,93.40
2018-03-07T06:59:26.643Z,93.50
2018-03-07T07:01:53.443Z,93.50
2018-03-07T07:04:20.132Z,93.40
2018-03-07T07:06:46.843Z,93.20
2018-03-07T07:09:13.991Z,93.20
2018-03-07T07:11:40.614Z,93.20
2018-03-07T07:14:07.992Z,93.30
2018-03-07T07:16:34.802Z,93.30
2018-03-07T07:19:02.402Z,92.70
2018-03-07T07:21:29.365Z,92.70
2018-03-07T07:23:56.463Z,92.30
2018-03-07T07:26:24.993Z,92.40
2018-03-07T07:28:53.461Z,92.30
2018-03-07T07:31:20.672Z,92.40
2018-03-07T07:33:48.776Z,92.20
2018-03-07T07:36:16.073Z,91.90
2018-03-07T07:38:43.843Z,91.30
2018-03-07T07:41:11.713Z,91.40
2018-03-07T07:43:38.674Z,91.00
2018-03-07T07:46:05.392Z,90.70
2018-03-07T07:48:32.844Z,90.70
2018-03-07T07:51:00.218Z,90.90
2018-03-07T07:53:27.283Z,90.90
2018-03-07T07:55:54.391Z,90.80
2018-03-07T07:58:21.216Z,91.00
2018-03-07T08:00:48.176Z,91.30
2018-03-07T08:03:14.831Z,91.40
2018-03-07T08:05:42.247Z,90.90
2018-03-07T08:08:08.851Z,90.70
2018-03-07T08:10:36.233Z,90.80
2018-03-07T08:13:03.204Z,90.80
2018-03-07T08:15:30.052Z,90.40
2018-03-07T08:17:58.232Z,89.20
2018-03-07T08:20:26.208Z,88.80
2018-03-07T08:22:53.050Z,89.30
2018-03-07T08:25:20.317Z,87.50
2018-03-07T08:27:48.181Z,86.50
2018-03-07T08:30:15.850Z,88.00
2018-03-07T08:32:42.679Z,87.40
2018-03-07T08:35:10.060Z,86.90
2018-03-07T08:37:37.421Z,85.70
2018-03-07T08:40:05.089Z,86.80
2018-03-07T08:42:31.939Z,87.30
2018-03-07T08:44:59.094Z,88.00
2018-03-07T08:47:25.819Z,87.90
2018-03-07T08:49:53.399Z,87.10
2018-03-07T08:52:20.767Z,87.90
2018-03-07T08:54:47.707Z,87.00
2018-03-07T08:57:15.070Z,86.50
2018-03-07T08:59:42.230Z,86.90
2018-03-07T09:02:09.177Z,85.80
2018-03-07T09:04:36.437Z,84.20
2018-03-07T09:07:03.438Z,84.00
2018-03-07T09:09:31.288Z,83.20
2018-03-07T09:11:57.930Z,85.00
2018-03-07T09:14:24.924Z,84.30
2018-03-07T09:16:52.843Z,84.00
2018-03-07T09:19:21.157Z,84.00
2018-03-07T09:21:48.217Z,84.10
2018-03-07T09:24:15.124Z,83.60
2018-03-07T09:26:41.874Z,84.50
2018-03-07T09:29:08.569Z,83.90
2018-03-07T09:31:36.523Z,84.70
2018-03-07T09:34:03.230Z,85.00
2018-03-07T09:36:30.149Z,84.00
2018-03-07T09:38:56.828Z,83.60
2018-03-07T09:41:23.508Z,86.50
2018-03-07T09:43:50.558Z,86.40
2018-03-07T09:46:17.262Z,84.80
2018-03-07T09:48:44.511Z,84.80
2018-03-07T09:51:14.192Z,85.40
2018-03-07T09:53:41.552Z,85.60
2018-03-07T09:56:09.014Z,85.60
2018-03-07T09:58:35.905Z,86.70
2018-03-07T10:01:02.681Z,85.90
2018-03-07T10:03:30.118Z,84.40
2018-03-07T10:05:57.475Z,83.10
2018-03-07T10:08:24.715Z,83.90
2018-03-07T10:10:52.589Z,83.50
2018-03-07T10:13:19.355Z,83.00
2018-03-07T10:15:46.403Z,84.70
2018-03-07T10:18:13.252Z,83.90
2018-03-07T10:20:40.205Z,83.60
2018-03-07T10:23:07.461Z,85.10
2018-03-07T10:25:36.030Z,84.70
2018-03-07T10:28:03.818Z,83.20
2018-03-07T10:30:30.644Z,83.20
2018-03-07T10:32:59.886Z,81.20
2018-03-07T10:35:27.026Z,81.20
2018-03-07T10:37:54.085Z,81.40
2018-03-07T10:40:21.341Z,81.60
2018-03-07T10:42:48.497Z,82.60
2018-03-07T10:45:16.367Z,82.30
2018-03-07T10:47:44.134Z,82.70
2018-03-07T10:50:11.697Z,83.00
2018-03-07T10:52:39.141Z,85.80
2018-03-07T10:55:07.852Z,85.00
2018-03-07T10:57:35.407Z,84.90
2018-03-07T11:00:02.818Z,84.50
2018-03-07T11:02:29.767Z,84.40
2018-03-07T11:04:57.907Z,85.40
2018-03-07T11:07:24.652Z,85.30
2018-03-07T11:09:51.399Z,83.40
2018-03-07T11:12:18.248Z,82.90
2018-03-07T11:14:45.307Z,81.40
2018-03-07T11:17:12.247Z,81.20
2018-03-07T11:19:39.306Z,81.60
2018-03-07T11:22:06.851Z,81.50
2018-03-07T11:24:33.619Z,81.70
2018-03-07T11:27:00.775Z,82.80
2018-03-07T11:29:27.622Z,83.10
2018-03-07T11:31:54.371Z,84.60
2018-03-07T11:34:21.353Z,82.10
2018-03-07T11:36:48.273Z,82.40
2018-03-07T11:39:15.327Z,82.30
2018-03-07T11:41:43.298Z,82.10
2018-03-07T11:44:11.275Z,82.30
2018-03-07T11:46:38.633Z,82.00
2018-03-07T11:49:06.403Z,82.00
2018-03-07T11:51:33.252Z,81.50
2018-03-07T11:54:00.405Z,81.70
2018-03-07T11:56:27.156Z,80.40
2018-03-07T11:58:54.208Z,81.50
2018-03-07T12:01:20.877Z,80.60
2018-03-07T12:03:50.154Z,81.10
2018-03-07T12:06:16.903Z,81.00
2018-03-07T12:08:43.757Z,80.50
2018-03-07T12:11:11.623Z,80.80
2018-03-07T12:13:38.934Z,81.20
2018-03-07T12:16:06.008Z,81.90
2018-03-07T12:18:33.486Z,81.90
2018-03-07T12:21:00.319Z,81.90
2018-03-07T12:23:27.809Z,80.10
2018-03-07T12:25:54.863Z,80.10
2018-03-07T12:28:22.837Z,80.60
2018-03-07T12:30:49.687Z,80.50
2018-03-07T12:33:16.722Z,80.10
2018-03-07T12:35:46.125Z,82.40
2018-03-07T12:38:13.606Z,83.80
2018-03-07T12:40:40.329Z,83.80
2018-03-07T12:43:08.227Z,82.60
2018-03-07T12:45:35.175Z,82.60
2018-03-07T12:48:03.461Z,82.60
2018-03-07T12:50:30.127Z,81.30
2018-03-07T12:52:56.848Z,81.80
2018-03-07T12:55:23.478Z,80.10
2018-03-07T12:57:51.468Z,80.50
2018-03-07T13:00:18.415Z,80.50
2018-03-07T13:02:45.677Z,80.60
2018-03-07T13:05:12.524Z,80.60
2018-03-07T13:07:39.576Z,81.30
2018-03-07T13:10:06.405Z,82.40
2018-03-07T13:12:33.990Z,82.90
2018-03-07T13:15:01.967Z,84.20
2018-03-07T13:17:29.939Z,84.10
2018-03-07T13:19:56.689Z,83.70
2018-03-07T13:22:24.047Z,83.00
2018-03-07T13:24:50.778Z,82.10
2018-03-07T13:27:17.950Z,80.50
2018-03-07T13:29:45.412Z,81.60
2018-03-07T13:32:12.262Z,82.30
2018-03-07T13:34:38.976Z,80.70
2018-03-07T13:37:06.671Z,80.30
2018-03-07T13:39:33.497Z,80.20
2018-03-07T13:42:00.882Z,79.50
2018-03-07T13:44:28.344Z,79.50
2018-03-07T13:46:55.754Z,78.10
2018-03-07T13:49:22.425Z,77.80
2018-03-07T13:51:49.403Z,76.60
2018-03-07T13:54:16.147Z,76.50
2018-03-07T13:56:42.999Z,76.80
2018-03-07T13:59:10.141Z,77.60
2018-03-07T14:01:37.960Z,76.30
2018-03-07T14:04:04.607Z,77.00
2018-03-07T14:06:31.545Z,79.30
2018-03-07T14:08:58.260Z,79.50
2018-03-07T14:11:25.040Z,81.60
2018-03-07T14:13:51.777Z,81.70
2018-03-07T14:16:19.006Z,80.50
2018-03-07T14:18:45.861Z,81.00
2018-03-07T14:21:12.610Z,80.50
2018-03-07T14:23:39.765Z,80.70
2018-03-07T14:26:06.714Z,80.40
2018-03-07T14:28:34.228Z,80.90
2018-03-07T14:31:00.916Z,80.90
2018-03-07T14:33:28.012Z,81.70
2018-03-07T14:35:55.016Z,83.00
2018-03-07T14:38:22.825Z,83.10
2018-03-07T14:40:49.496Z,83.70
2018-03-07T14:43:16.210Z,83.30
2018-03-07T14:45:43.323Z,81.80
2018-03-07T14:48:11.035Z,81.80
2018-03-07T14:50:37.977Z,83.10
2018-03-07T14:53:05.562Z,81.90
2018-03-07T14:55:32.602Z,81.90
2018-03-07T14:57:59.224Z,82.30
2018-03-07T15:00:27.465Z,81.40
2018-03-07T15:02:55.019Z,84.10
2018-03-07T15:05:21.776Z,84.00
2018-03-07T15:07:49.608Z,85.60
2018-03-07T15:10:16.723Z,85.40
2018-03-07T15:12:43.585Z,84.10
2018-03-07T15:15:10.695Z,84.10
2018-03-07T15:17:38.476Z,85.80
2018-03-07T15:20:05.367Z,85.80
2018-03-07T15:22:32.216Z,85.40
2018-03-07T15:24:59.472Z,86.30
2018-03-07T15:27:26.109Z,87.60
2018-03-07T15:29:52.943Z,86.80
2018-03-07T15:32:20.427Z,87.50
2018-03-07T15:34:47.173Z,87.50
2018-03-07T15:37:14.534Z,86.60
2018-03-07T15:39:41.793Z,87.10
2018-03-07T15:42:09.769Z,87.50
2018-03-07T15:44:36.774Z,87.20
2018-03-07T15:47:04.589Z,88.10
2018-03-07T15:49:31.695Z,88.40
2018-03-07T15:51:58.958Z,86.60
2018-03-07T15:54:25.934Z,86.60
2018-03-07T15:56:53.828Z,87.00
2018-03-07T15:59:20.776Z,87.00
2018-03-07T16:01:47.391Z,89.10
2018-03-07T16:04:14.546Z,88.90
2018-03-07T16:06:41.527Z,88.50
2018-03-07T16:09:08.473Z,87.80
2018-03-07T16:11:35.325Z,87.80
2018-03-07T16:14:02.375Z,88.50
2018-03-07T16:16:30.762Z,89.60
2018-03-07T16:18:57.802Z,89.40
2018-03-07T16:21:26.204Z,88.80
2018-03-07T16:23:53.494Z,88.80
2018-03-07T16:26:20.716Z,90.00
2018-03-07T16:28:49.122Z,90.30
2018-03-07T16:31:16.052Z,90.30
2018-03-07T16:33:42.977Z,90.50
2018-03-07T16:36:09.751Z,90.70
2018-03-07T16:38:37.100Z,90.80
2018-03-07T16:41:04.848Z,90.50
2018-03-07T16:43:32.442Z,90.90
2018-03-07T16:45:59.908Z,90.90
2018-03-07T16:48:27.049Z,90.90
2018-03-07T16:50:53.711Z,90.80
2018-03-07T16:53:20.336Z,90.50
2018-03-07T16:55:47.120Z,90.80
2018-03-07T16:58:14.217Z,90.90
2018-03-07T17:00:40.979Z,90.70
2018-03-07T17:03:08.642Z,90.70
2018-03-07T17:05:35.788Z,90.70
2018-03-07T17:08:02.660Z,90.90
2018-03-07T17:10:29.776Z,91.30
2018-03-07T17:12:56.719Z,91.20
2018-03-07T17:15:24.245Z,90.80
2018-03-07T17:17:51.008Z,90.60
2018-03-07T17:20:18.959Z,90.70
2018-03-07T17:22:45.655Z,90.80
2018-03-07T17:25:12.282Z,90.80
2018-03-07T17:27:39.707Z,91.70
2018-03-07T17:30:06.818Z,91.70
2018-03-07T17:32:33.560Z,92.20
2018-03-07T17:35:01.687Z,92.50
2018-03-07T17:37:28.363Z,92.00
2018-03-07T17:39:55.392Z,92.30
2018-03-07T17:42:22.851Z,92.40
2018-03-07T17:44:49.904Z,92.60
2018-03-07T17:47:16.662Z,92.60
2018-03-07T17:49:43.979Z,92.90
2018-03-07T17:52:11.704Z,93.10
2018-03-07T17:54:38.434Z,93.10
2018-03-07T17:57:06.579Z,92.80
2018-03-07T17:59:34.164Z,93.00
2018-03-07T18:02:00.879Z,93.00
2018-03-07T18:04:29.317Z,93.00
2018-03-07T18:06:56.551Z,93.00
2018-03-07T18:09:23.299Z,93.20
2018-03-07T18:11:50.576Z,93.70
2018-03-07T18:14:17.512Z,93.80
2018-03-07T18:16:44.868Z,93.90
2018-03-07T18:19:11.552Z,94.20
2018-03-07T18:21:39.080Z,94.60
2018-03-07T18:24:06.527Z,94.60
2018-03-07T18:26:33.492Z,94.50
2018-03-07T18:29:00.424Z,94.30
2018-03-07T18:31:27.885Z,94.40
2018-03-07T18:33:54.734Z,94.40
2018-03-07T18:36:22.627Z,94.30
2018-03-07T18:38:49.782Z,94.40
2018-03-07T18:41:16.632Z,94.30
2018-03-07T18:43:44.090Z,94.10
2018-03-07T18:46:10.852Z,94.20
2018-03-07T18:48:37.583Z,94.00
2018-03-07T18:51:04.947Z,94.10
2018-03-07T18:53:32.097Z,94.40
2018-03-07T18:55:59.153Z,94.40
2018-03-07T18:58:25.900Z,94.40
2018-03-07T19:00:53.361Z,94.70
2018-03-07T19:03:20.113Z,94.70
2018-03-07T19:05:48.296Z,94.20
2018-03-07T19:08:14.960Z,94.20
2018-03-07T19:10:41.595Z,94.40
2018-03-07T19:13:09.248Z,94.50
2018-03-07T19:15:36.094Z,94.40
2018-03-07T19:18:02.841Z,94.70
2018-03-07T19:20:29.689Z,94.40
2018-03-07T19:22:56.732Z,94.20
2018-03-07T19:25:24.306Z,94.30
2018-03-07T19:27:51.901Z,94.40
2018-03-07T19:30:19.536Z,94.50
2018-03-07T19:32:47.612Z,94.40
2018-03-07T19:35:14.443Z,94.40
2018-03-07T19:37:43.137Z,94.60
2018-03-07T19:40:09.899Z,94.60
2018-03-07T19:42:36.952Z,94.50
2018-03-07T19:45:04.698Z,94.40
2018-03-07T19:47:33.209Z,94.60
2018-03-07T19:50:00.513Z,94.60
2018-03-07T19:52:27.316Z,94.60
2018-03-07T19:54:54.359Z,94.90
2018-03-07T19:57:21.628Z,94.50
2018-03-07T19:59:49.189Z,94.80
2018-03-07T20:02:16.052Z,94.80
2018-03-07T20:04:42.787Z,94.90
2018-03-07T20:07:09.519Z,94.90
2018-03-07T20:09:36.792Z,94.80
2018-03-07T20:12:03.561Z,94.90
2018-03-07T20:14:30.397Z,94.70
2018-03-07T20:16:57.130Z,94.90
2018-03-07T20:19:23.798Z,94.90
2018-03-07T20:21:50.527Z,94.80
2018-03-07T20:24:17.983Z,95.10
2018-03-07T20:26:44.744Z,95.10
2018-03-07T20:29:11.836Z,95.20
2018-03-07T20:31:38.487Z,95.20
2018-03-07T20:34:05.224Z,95.40
2018-03-07T20:36:32.832Z,95.40
2018-03-07T20:38:59.749Z,95.40
2018-03-07T20:41:26.764Z,95.30
2018-03-07T20:43:53.835Z,95.30
2018-03-07T20:46:21.771Z,95.00
2018-03-07T20:48:48.927Z,95.00
2018-03-07T20:51:16.025Z,94.80
2018-03-07T20:53:42.864Z,94.70
2018-03-07T20:56:11.644Z,94.60
2018-03-07T20:58:39.166Z,94.40
2018-03-07T21:01:06.523Z,94.30
2018-03-07T21:03:34.617Z,94.30
2018-03-07T21:06:01.404Z,94.30
2018-03-07T21:08:29.753Z,94.10
2018-03-07T21:10:56.602Z,94.10
2018-03-07T21:13:24.448Z,94.10
2018-03-07T21:15:52.333Z,93.90
2018-03-07T21:18:20.856Z,93.40
2018-03-07T21:20:47.783Z,93.40
2018-03-07T21:23:14.834Z,93.20
2018-03-07T21:25:42.094Z,93.10
2018-03-07T21:28:09.501Z,93.20
2018-03-07T21:30:36.184Z,93.20
2018-03-07T21:33:03.641Z,93.20
2018-03-07T21:35:30.336Z,93.20
2018-03-07T21:37:57.071Z,93.40
2018-03-07T21:40:25.948Z,93.30
2018-03-07T21:42:52.783Z,93.50
2018-03-07T21:45:20.360Z,93.50
2018-03-07T21:47:49.720Z,93.30
2018-03-07T21:50:16.636Z,93.40
2018-03-07T21:52:43.526Z,93.40
2018-03-07T21:55:12.542Z,93.50
2018-03-07T21:57:42.128Z,93.40
2018-03-07T22:00:09.464Z,93.40
2018-03-07T22:02:36.180Z,93.50
2018-03-07T22:05:03.240Z,93.70
2018-03-07T22:07:30.725Z,93.60
2018-03-07T22:09:58.548Z,93.60
2018-03-07T22:12:25.686Z,93.60
2018-03-07T22:14:54.135Z,93.50
2018-03-07T22:17:22.004Z,93.50
2018-03-07T22:19:49.246Z,93.60
2018-03-07T22:22:15.876Z,93.60
2018-03-07T22:24:42.753Z,93.50
2018-03-07T22:27:11.569Z,93.70
2018-03-07T22:29:38.706Z,93.90
2018-03-07T22:32:05.957Z,93.80
2018-03-07T22:34:33.502Z,93.70
2018-03-07T22:37:00.173Z,93.60
2018-03-07T22:39:27.094Z,93.80
2018-03-07T22:41:53.905Z,93.90
2018-03-07T22:44:21.518Z,93.80
2018-03-07T22:46:49.418Z,93.70
2018-03-07T22:49:18.267Z,93.50
2018-03-07T22:51:45.917Z,93.80
2018-03-07T22:54:12.884Z,93.80
2018-03-07T22:56:40.566Z,93.70
2018-03-07T22:59:07.448Z,93.70
2018-03-07T23:01:34.246Z,93.70
2018-03-07T23:04:01.149Z,93.90
2018-03-07T23:06:27.870Z,93.80
2018-03-07T23:08:55.157Z,93.90
2018-03-07T23:11:22.938Z,94.10
2018-03-07T23:13:49.852Z,94.00
2018-03-07T23:16:17.459Z,93.90
2018-03-07T23:18:44.074Z,93.90
2018-03-07T23:21:10.766Z,93.90
2018-03-07T23:23:38.498Z,93.60
2018-03-07T23:26:07.213Z,93.50
2018-03-07T23:28:34.927Z,93.50
2018-03-07T23:31:01.833Z,93.70
2018-03-07T23:33:29.279Z,94.20
2018-03-07T23:35:56.076Z,93.80
2018-03-07T23:38:23.141Z,93.70
2018-03-07T23:40:49.853Z,94.00
2018-03-07T23:43:17.426Z,94.00
2018-03-07T23:45:45.084Z,94.10
2018-03-07T23:48:12.590Z,94.30
2018-03-07T23:50:39.317Z,94.20
2018-03-07T23:53:06.375Z,94.10
2018-03-07T23:55:33.092Z,94.10
2018-03-07T23:58:00.749Z,93.80
